createdAt,value
2019-03-15T00:02:14.731Z,10.12
2019-03-15T00:07:18.629Z,10.12
2019-03-15T00:12:22.513Z,10.11
2019-03-15T00:17:26.534Z,10.12
2019-03-15T00:22:30.528Z,10.12
2019-03-15T00:27:34.490Z,10.12
2019-03-15T00:43:07.507Z,10.09
2019-03-15T00:48:11.529Z,10.08
2019-03-15T00:53:15.538Z,10.06
2019-03-15T00:58:19.538Z,10.06
2019-03-15T01:03:23.550Z,10.07
2019-03-15T01:08:27.495Z,10.06
2019-03-15T01:13:31.451Z,10.02
2019-03-15T01:18:35.435Z,10.06
2019-03-15T01:23:39.320Z,10.06
2019-03-15T01:28:43.324Z,10.06
2019-03-15T01:33:47.203Z,10.08
2019-03-15T01:38:51.190Z,10.07
2019-03-15T01:43:55.251Z,10.06
2019-03-15T01:48:59.218Z,10.04
2019-03-15T01:54:03.207Z,10.02
2019-03-15T01:59:07.155Z,10.00
2019-03-15T02:04:11.081Z,10.00
2019-03-15T02:09:15.047Z,10.00
2019-03-15T02:14:19.085Z,10.00
2019-03-15T02:19:23.100Z,9.99
2019-03-15T02:24:27.050Z,9.99
2019-03-15T02:29:31.070Z,10.00
2019-03-15T02:34:35.099Z,9.99
2019-03-15T02:39:39.087Z,9.96
2019-03-15T02:44:43.140Z,9.95
2019-03-15T02:49:47.134Z,9.96
2019-03-15T02:54:51.083Z,9.96
2019-03-15T02:59:55.046Z,9.95
2019-03-15T03:04:58.982Z,9.94
2019-03-15T03:10:02.946Z,9.94
2019-03-15T03:15:06.918Z,9.92
2019-03-15T03:20:10.872Z,9.91
2019-03-15T03:25:14.848Z,9.93
2019-03-15T03:30:18.824Z,9.91
2019-03-15T03:35:22.778Z,9.95
2019-03-15T03:40:26.766Z,9.96
2019-03-15T03:45:30.866Z,9.98
2019-03-15T03:50:34.791Z,10.00
2019-03-15T03:55:38.740Z,10.00
2019-03-15T04:00:42.668Z,10.04
2019-03-15T04:05:46.626Z,10.00
2019-03-15T04:10:50.640Z,10.04
2019-03-15T04:15:54.585Z,10.03
2019-03-15T04:20:58.522Z,10.03
2019-03-15T04:26:02.502Z,10.04
2019-03-15T04:31:06.531Z,10.04
2019-03-15T04:36:10.625Z,10.05
2019-03-15T04:41:14.576Z,10.08
2019-03-15T04:46:18.602Z,10.08
2019-03-15T04:51:22.502Z,10.09
2019-03-15T04:56:26.435Z,10.08
2019-03-15T05:01:30.431Z,10.06
2019-03-15T05:06:34.461Z,10.07
2019-03-15T05:11:38.406Z,10.05
2019-03-15T05:16:42.370Z,10.08
2019-03-15T05:21:46.295Z,10.06
2019-03-15T05:26:50.292Z,10.09
2019-03-15T05:31:54.251Z,10.07
2019-03-15T05:36:58.222Z,10.07
2019-03-15T05:42:02.175Z,10.06
2019-03-15T05:47:06.952Z,10.06
2019-03-15T05:52:10.901Z,10.07
2019-03-15T05:57:14.896Z,10.09
2019-03-15T06:02:18.826Z,10.08
2019-03-15T06:07:22.831Z,10.09
2019-03-15T06:12:26.893Z,10.07
2019-03-15T06:17:30.983Z,10.08
2019-03-15T06:22:34.986Z,10.07
2019-03-15T06:27:38.990Z,10.07
2019-03-15T06:32:42.990Z,10.08
2019-03-15T06:37:47.059Z,10.07
2019-03-15T06:42:51.106Z,10.08
2019-03-15T06:47:55.185Z,10.14
2019-03-15T06:52:59.165Z,10.13
2019-03-15T06:58:03.118Z,10.13
2019-03-15T07:03:07.095Z,10.13
2019-03-15T07:08:11.083Z,10.14
2019-03-15T07:13:15.087Z,10.14
2019-03-15T07:18:19.069Z,10.16
2019-03-15T07:23:23.361Z,10.19
2019-03-15T07:28:27.391Z,10.20
2019-03-15T07:33:31.367Z,10.18
2019-03-15T07:38:35.317Z,10.18
2019-03-15T07:43:39.346Z,10.17
2019-03-15T07:48:44.207Z,10.20
2019-03-15T07:53:48.335Z,10.21
2019-03-15T07:58:52.310Z,10.24
2019-03-15T08:03:56.290Z,10.22
2019-03-15T08:09:00.190Z,10.23
2019-03-15T08:14:04.371Z,10.24
2019-03-15T08:19:08.376Z,10.22
2019-03-15T08:24:12.431Z,10.21
2019-03-15T08:29:16.581Z,10.22
2019-03-15T08:34:21.694Z,10.20
2019-03-15T08:39:25.731Z,10.23
2019-03-15T08:44:29.811Z,10.28
2019-03-15T08:49:35.024Z,10.29
2019-03-15T08:54:39.037Z,10.26
2019-03-15T08:59:52.954Z,10.24
2019-03-15T09:04:50.517Z,10.22
2019-03-15T09:09:54.714Z,10.24
2019-03-15T09:14:58.830Z,10.24
2019-03-15T09:20:02.820Z,10.22
2019-03-15T09:25:18.419Z,10.22
2019-03-15T09:30:23.366Z,10.22
2019-03-15T09:35:19.034Z,10.25
2019-03-15T09:40:25.681Z,10.23
2019-03-15T09:45:28.734Z,10.24
2019-03-15T09:50:40.219Z,10.24
2019-03-15T09:55:38.515Z,10.29
2019-03-15T10:00:42.455Z,10.27
2019-03-15T10:05:46.445Z,10.31
2019-03-15T10:10:50.410Z,10.33
2019-03-15T10:15:57.191Z,10.35
2019-03-15T10:21:01.346Z,10.40
2019-03-15T10:26:10.046Z,10.45
2019-03-15T10:31:14.008Z,10.50
2019-03-15T10:36:17.945Z,10.64
2019-03-15T10:41:21.950Z,10.53
2019-03-15T10:46:25.941Z,10.63
2019-03-15T10:51:29.990Z,10.66
2019-03-15T10:56:34.012Z,10.79
2019-03-15T11:01:38.057Z,10.78
2019-03-15T11:06:42.038Z,10.74
2019-03-15T11:11:46.000Z,10.64
2019-03-15T11:16:50.131Z,10.70
2019-03-15T11:21:54.106Z,10.79
2019-03-15T11:26:58.146Z,10.81
2019-03-15T11:32:02.138Z,10.80
2019-03-15T11:37:06.126Z,10.78
2019-03-15T11:42:10.020Z,10.76
2019-03-15T11:47:18.042Z,10.74
2019-03-15T11:52:23.461Z,10.64
2019-03-15T11:57:27.396Z,10.59
2019-03-15T12:02:31.497Z,10.61
2019-03-15T12:07:35.612Z,10.65
2019-03-15T12:12:39.586Z,10.70
2019-03-15T12:17:43.841Z,10.72
2019-03-15T12:22:47.840Z,10.76
2019-03-15T12:27:51.977Z,10.73
2019-03-15T12:32:56.019Z,10.77
2019-03-15T12:38:00.056Z,10.78
2019-03-15T12:43:04.091Z,10.66
2019-03-15T12:48:08.086Z,10.70
2019-03-15T12:53:13.069Z,10.67
2019-03-15T12:58:17.131Z,10.59
2019-03-15T13:03:21.270Z,10.55
2019-03-15T13:08:25.165Z,10.54
2019-03-15T13:13:29.110Z,10.57
2019-03-15T13:18:33.080Z,10.63
2019-03-15T13:23:37.103Z,10.54
2019-03-15T13:28:41.282Z,10.52
2019-03-15T13:33:45.291Z,10.49
2019-03-15T13:38:49.316Z,10.44
2019-03-15T13:43:53.323Z,10.52
2019-03-15T13:48:57.276Z,10.52
2019-03-15T13:54:03.887Z,10.48
2019-03-15T13:59:07.902Z,10.48
2019-03-15T14:04:11.790Z,10.59
2019-03-15T14:09:15.755Z,10.61
2019-03-15T14:14:19.742Z,10.68
2019-03-15T14:19:23.835Z,10.71
2019-03-15T14:24:28.886Z,10.64
2019-03-15T14:29:32.882Z,10.68
2019-03-15T14:34:36.882Z,10.67
2019-03-15T14:39:41.171Z,10.65
2019-03-15T14:44:45.309Z,10.67
2019-03-15T14:49:49.536Z,10.60
2019-03-15T14:54:53.560Z,10.61
2019-03-15T14:59:57.482Z,10.53
2019-03-15T15:05:01.471Z,10.50
2019-03-15T15:10:05.478Z,10.42
2019-03-15T15:15:10.907Z,10.42
2019-03-15T15:20:14.893Z,10.43
2019-03-15T15:25:18.942Z,10.42
2019-03-15T15:30:22.936Z,10.37
2019-03-15T15:35:26.882Z,10.37
2019-03-15T15:40:30.891Z,10.33
2019-03-15T15:45:34.904Z,10.28
2019-03-15T15:50:38.916Z,10.23
2019-03-15T15:55:43.014Z,10.22
2019-03-15T16:00:46.993Z,10.17
2019-03-15T16:05:51.007Z,10.13
2019-03-15T16:10:55.016Z,10.08
2019-03-15T16:15:59.271Z,10.07
2019-03-15T16:21:03.350Z,10.08
2019-03-15T16:26:11.514Z,10.07
2019-03-15T16:31:15.563Z,10.09
2019-03-15T16:36:19.515Z,10.05
2019-03-15T16:41:23.518Z,10.05
2019-03-15T16:46:27.575Z,10.02
2019-03-15T16:51:31.639Z,10.02
2019-03-15T16:56:36.541Z,10.00
2019-03-15T17:01:40.521Z,10.00
2019-03-15T17:06:47.030Z,9.68
2019-03-15T17:11:51.058Z,10.00
2019-03-15T17:16:55.296Z,10.00
2019-03-15T17:21:59.262Z,9.98
2019-03-15T17:27:03.247Z,10.00
2019-03-15T17:32:07.451Z,9.99
2019-03-15T17:37:11.470Z,10.04
2019-03-15T17:42:15.449Z,9.99
2019-03-15T17:47:19.471Z,9.99
2019-03-15T17:52:23.400Z,9.99
2019-03-15T17:57:28.655Z,10.00
2019-03-15T18:02:32.635Z,9.97
2019-03-15T18:07:36.572Z,10.00
2019-03-15T18:12:40.662Z,10.01
2019-03-15T18:17:44.770Z,10.00
2019-03-15T18:22:48.789Z,10.00
2019-03-15T18:27:53.423Z,9.98
2019-03-15T18:33:00.521Z,10.02
2019-03-15T18:38:04.661Z,10.04
2019-03-15T18:43:08.860Z,10.02
2019-03-15T18:48:13.059Z,10.04
2019-03-15T18:53:17.180Z,10.04
2019-03-15T18:58:24.043Z,10.05
2019-03-15T19:03:28.271Z,10.06
2019-03-15T19:08:32.499Z,10.08
2019-03-15T19:13:36.863Z,10.07
2019-03-15T19:18:41.082Z,10.06
2019-03-15T19:23:45.342Z,10.00
2019-03-15T19:28:49.459Z,10.05
2019-03-15T19:33:53.667Z,10.03
2019-03-15T19:38:57.802Z,10.06
2019-03-15T19:44:02.063Z,10.05
2019-03-15T19:49:06.262Z,10.04
2019-03-15T19:54:10.422Z,10.05
2019-03-15T19:59:14.632Z,10.07
2019-03-15T20:04:18.760Z,10.08
2019-03-15T20:09:22.884Z,10.08
2019-03-15T20:14:27.303Z,10.08
2019-03-15T20:19:36.201Z,10.09
2019-03-15T20:24:40.501Z,10.04
2019-03-15T20:29:44.720Z,10.04
2019-03-15T20:34:49.003Z,10.05
2019-03-15T20:39:53.160Z,10.04
2019-03-15T20:44:57.264Z,10.05
2019-03-15T20:50:01.464Z,10.03
2019-03-15T20:55:05.784Z,10.04
2019-03-15T21:00:11.925Z,10.03
2019-03-15T21:05:16.043Z,9.99
2019-03-15T21:10:20.232Z,9.98
2019-03-15T21:15:24.402Z,9.98
2019-03-15T21:20:28.781Z,9.97
2019-03-15T21:25:32.978Z,9.97
2019-03-15T21:30:47.805Z,9.94
2019-03-15T21:35:43.180Z,9.94
2019-03-15T21:40:47.379Z,9.92
2019-03-15T21:45:51.580Z,9.94
2019-03-15T21:50:58.662Z,9.93
2019-03-15T21:56:02.982Z,9.95
2019-03-15T22:01:08.762Z,9.96
2019-03-15T22:06:12.918Z,9.96
2019-03-15T22:11:21.512Z,9.96
2019-03-15T22:16:23.100Z,9.97
2019-03-15T22:21:27.420Z,9.97
2019-03-15T22:26:31.583Z,9.97
2019-03-15T22:31:35.760Z,9.95
2019-03-15T22:36:40.117Z,9.94
2019-03-15T22:41:44.280Z,9.91
2019-03-15T22:46:48.462Z,9.92
2019-03-15T22:51:52.641Z,9.92
2019-03-15T22:56:56.741Z,9.91
2019-03-15T23:02:01.102Z,9.93
2019-03-15T23:07:05.243Z,9.91
2019-03-15T23:12:09.342Z,9.92
2019-03-15T23:17:13.441Z,9.90
2019-03-15T23:22:17.582Z,9.90
2019-03-15T23:27:24.663Z,9.85
2019-03-15T23:32:28.800Z,9.82
2019-03-15T23:37:33.041Z,9.79
2019-03-15T23:42:37.220Z,9.77
2019-03-15T23:47:41.407Z,9.76
2019-03-15T23:52:45.622Z,9.78
2019-03-15T23:57:50.703Z,9.75
